Time;durP1;ratioP1;P1;durP2;ratioP2;P2;SDS_P1;SDS_P2;PMS_P1;PMS_P2;Temp;Humidity;BMP_temperature;BMP_pressure;BME280_temperature;BME280_humidity;BME280_pressure;Samples;Min_cycle;Max_cycle;Signal;HPM_P1;HPM_P2
2022/05/27 00:00:24;;;;;;;7.05;3.95;;;;;;;15.21;64.65;100117.84;5004768;28;20034;-66
2022/05/27 00:02:50;;;;;;;4.57;2.58;;;;;;;15.16;65.00;100114.63;5005404;28;20489;-67
2022/05/27 00:05:17;;;;;;;6.20;2.92;;;;;;;15.19;64.91;100124.19;5005598;28;20105;-64
2022/05/27 00:07:43;;;;;;;5.20;2.90;;;;;;;15.13;65.43;100113.94;5005053;28;20030;-64
2022/05/27 00:10:10;;;;;;;5.47;3.85;;;;;;;15.07;65.19;100117.00;5006208;28;20034;-66
2022/05/27 00:12:35;;;;;;;7.00;4.80;;;;;;;15.03;65.22;100114.50;5004983;28;20045;-66
2022/05/27 00:15:01;;;;;;;6.38;3.92;;;;;;;15.00;65.39;100119.19;5006068;28;20038;-66
2022/05/27 00:17:26;;;;;;;9.77;4.43;;;;;;;14.96;65.46;100122.97;5005044;28;20037;-64
2022/05/27 00:19:52;;;;;;;6.30;4.43;;;;;;;14.94;65.69;100104.50;5005513;28;20041;-64
2022/05/27 00:22:17;;;;;;;7.70;4.63;;;;;;;14.93;65.80;100108.06;5005657;28;20577;-65
2022/05/27 00:24:43;;;;;;;12.63;4.85;;;;;;;14.92;65.67;100101.06;5005016;28;20512;-66
2022/05/27 00:27:08;;;;;;;6.88;4.90;;;;;;;14.88;65.68;100106.66;5004579;28;20045;-66
2022/05/27 00:29:35;;;;;;;8.48;5.05;;;;;;;14.87;65.83;100113.78;5005846;28;20034;-66
2022/05/27 00:32:01;;;;;;;9.52;5.03;;;;;;;14.76;65.84;100105.63;5005278;28;20042;-66
2022/05/27 00:34:27;;;;;;;6.88;4.68;;;;;;;14.73;66.11;100105.81;5005078;28;20493;-65
2022/05/27 00:36:52;;;;;;;7.50;4.30;;;;;;;14.75;65.95;100107.41;5004769;28;20100;-66
2022/05/27 00:39:18;;;;;;;11.45;5.10;;;;;;;14.74;66.00;100105.72;5006152;28;20038;-65
2022/05/27 00:41:43;;;;;;;6.50;3.88;;;;;;;14.70;66.30;100104.19;5005742;28;20041;-66
2022/05/27 00:44:08;;;;;;;7.03;3.83;;;;;;;14.71;66.30;100105.03;5007050;28;20080;-67
2022/05/27 00:46:35;;;;;;;5.82;3.67;;;;;;;14.69;66.07;100101.63;5006489;28;20045;-64
2022/05/27 00:49:08;;;;;;;6.03;4.28;;;;;;;14.73;66.13;100095.19;5007184;28;20101;-65
2022/05/27 00:51:44;;;;;;;8.07;4.00;;;;;;;14.74;66.06;100092.47;5006355;28;20507;-63
2022/05/27 00:54:14;;;;;;;5.85;3.20;;;;;;;14.75;66.19;100088.00;5007937;28;20044;-65
2022/05/27 00:56:43;;;;;;;7.18;3.25;;;;;;;14.74;65.83;100091.59;5010363;28;20030;-63
2022/05/27 00:59:17;;;;;;;9.23;3.42;;;;;;;14.71;66.12;100087.31;5011492;28;20053;-66
2022/05/27 01:01:44;;;;;;;9.30;4.25;;;;;;;14.72;66.22;100081.06;5011259;28;20094;-66
2022/05/27 01:04:10;;;;;;;4.65;3.13;;;;;;;14.76;66.08;100082.56;5032626;28;20033;-65
2022/05/27 01:06:35;;;;;;;8.65;3.95;;;;;;;14.79;65.88;100078.88;5013848;28;20040;-66
2022/05/27 01:09:02;;;;;;;4.40;2.67;;;;;;;14.81;65.97;100077.81;5006396;28;20125;-66
2022/05/27 01:12:01;;;;;;;5.50;3.50;;;;;;;14.81;66.34;100072.53;5005820;28;20068;-66
2022/05/27 01:14:51;;;;;;;6.45;4.50;;;;;;;14.77;66.29;100071.03;5005881;28;20401;-66
2022/05/27 01:17:33;;;;;;;5.38;3.38;;;;;;;14.74;66.59;100075.66;5005429;28;20108;-66
2022/05/27 01:20:40;;;;;;;6.43;2.85;;;;;;;14.73;66.48;100073.97;5005664;28;20042;-64
2022/05/27 01:23:05;;;;;;;;;;;;;;;14.69;66.65;100078.59;5008088;28;20045;-65
2022/05/27 01:26:08;;;;;;;5.10;3.13;;;;;;;14.66;66.42;100070.81;5009292;28;20396;-66
2022/05/27 01:28:42;;;;;;;5.72;2.90;;;;;;;14.67;66.76;100072.56;5010733;28;20494;-65
2022/05/27 01:31:23;;;;;;;6.50;2.97;;;;;;;14.66;66.62;100068.16;5010017;28;20115;-66
2022/05/27 01:34:00;;;;;;;8.02;3.38;;;;;;;14.64;66.50;100066.56;5010034;28;20037;-66
2022/05/27 01:36:36;;;;;;;6.22;2.72;;;;;;;14.60;66.61;100060.59;5009094;28;20046;-66
2022/05/27 01:39:01;;;;;;;;;;;;;;;14.57;66.78;100066.06;5009463;28;20092;-65
2022/05/27 01:41:45;;;;;;;;;;;;;;;14.53;66.88;100059.25;5009470;28;20547;-67
2022/05/27 01:44:18;;;;;;;5.38;2.30;;;;;;;14.49;66.85;100055.91;5010002;28;19924;-67
2022/05/27 01:46:46;;;;;;;6.20;2.58;;;;;;;14.53;66.78;100054.81;5008641;28;20026;-65
2022/05/27 01:49:26;;;;;;;6.72;2.55;;;;;;;14.57;66.92;100050.16;5008298;28;20038;-66
2022/05/27 01:52:15;;;;;;;3.75;2.30;;;;;;;14.60;66.88;100039.38;5007865;28;20100;-67
2022/05/27 01:55:10;;;;;;;3.22;2.05;;;;;;;14.56;66.98;100048.47;5004331;28;20065;-66
2022/05/27 01:57:48;;;;;;;4.83;2.60;;;;;;;14.58;66.56;100038.63;5007814;28;20041;-67
2022/05/27 02:00:24;;;;;;;6.20;2.20;;;;;;;14.61;66.97;100049.03;5008308;28;20087;-65
2022/05/27 02:03:03;;;;;;;14.80;2.80;;;;;;;14.60;66.74;100040.22;5008838;28;20053;-66
2022/05/27 02:05:40;;;;;;;4.97;2.15;;;;;;;14.57;66.84;100035.13;5008116;28;20046;-66
2022/05/27 02:08:12;;;;;;;3.85;2.30;;;;;;;14.60;66.98;100036.72;5008446;28;20065;-66
2022/05/27 02:10:59;;;;;;;4.28;2.22;;;;;;;14.61;66.93;100041.06;5007900;28;20117;-66
2022/05/27 02:13:38;;;;;;;6.47;2.97;;;;;;;14.54;66.98;100032.63;5008799;28;20044;-65
2022/05/27 02:16:05;;;;;;;5.82;2.03;;;;;;;14.48;67.13;100034.78;5008267;28;20045;-65
2022/05/27 02:18:49;;;;;;;4.80;3.00;;;;;;;14.49;67.37;100039.13;5009157;28;20104;-63
2022/05/27 02:21:32;;;;;;;2.97;2.00;;;;;;;14.52;67.57;100028.34;5021699;28;20045;-66
2022/05/27 02:24:03;;;;;;;4.78;2.08;;;;;;;14.42;67.92;100035.16;5029254;28;20116;-66
2022/05/27 02:26:32;;;;;;;4.40;2.10;;;;;;;14.38;68.97;100039.81;5026506;28;20553;-66
2022/05/27 02:29:02;;;;;;;3.63;3.00;;;;;;;14.33;70.01;100034.78;5025568;28;20053;-66
2022/05/27 02:31:32;;;;;;;4.93;2.38;;;;;;;14.24;71.16;100032.69;5027044;28;20053;-66
2022/05/27 02:37:05;;;;;;;4.65;2.70;;;;;;;14.03;73.52;100033.97;5026402;28;20064;-67
2022/05/27 02:39:31;;;;;;;7.82;2.42;;;;;;;13.97;74.75;100032.53;5026991;28;20042;-66
2022/05/27 02:42:11;;;;;;;7.97;3.20;;;;;;;13.90;74.58;100037.34;5026553;28;20037;-66
2022/05/27 02:45:03;;;;;;;5.43;2.50;;;;;;;13.86;75.63;100037.63;5026795;28;20041;-65
2022/05/27 02:47:39;;;;;;;5.50;3.35;;;;;;;13.84;76.11;100037.72;5024081;28;20072;-66
2022/05/27 02:50:18;;;;;;;5.18;2.45;;;;;;;13.80;75.75;100030.03;5027199;28;20511;-64
2022/05/27 02:53:09;;;;;;;6.68;2.20;;;;;;;13.80;76.35;100041.47;5026469;28;20045;-65
2022/05/27 02:55:53;;;;;;;7.50;3.22;;;;;;;13.72;76.24;100041.06;5026963;28;20437;-66
2022/05/27 02:58:18;;;;;;;4.90;2.60;;;;;;;13.62;76.76;100027.50;5010786;28;20042;-64
2022/05/27 03:00:46;;;;;;;7.82;3.75;;;;;;;13.61;77.13;100030.22;5005294;28;20413;-66
2022/05/27 03:03:11;;;;;;;13.05;4.07;;;;;;;13.61;77.10;100044.34;5006803;28;20033;-65
2022/05/27 03:06:00;;;;;;;4.60;2.63;;;;;;;13.64;77.74;100036.22;5005974;28;20659;-64
2022/05/27 03:08:38;;;;;;;6.97;2.83;;;;;;;13.62;78.13;100029.31;5005952;28;20042;-64
2022/05/27 03:11:22;;;;;;;4.80;2.60;;;;;;;13.63;78.67;100034.50;5006370;28;20391;-64
2022/05/27 03:14:15;;;;;;;4.00;2.70;;;;;;;13.61;78.88;100030.22;5006250;28;20044;-63
2022/05/27 03:16:59;;;;;;;6.55;3.55;;;;;;;13.59;79.05;100033.00;5005737;28;20053;-66
2022/05/27 03:19:59;;;;;;;5.93;3.75;;;;;;;13.55;79.07;100022.66;5005515;28;20549;-63
2022/05/27 03:22:38;;;;;;;5.18;2.83;;;;;;;13.48;79.70;100020.34;5006350;28;20096;-63
2022/05/27 03:25:25;;;;;;;5.50;2.70;;;;;;;13.48;80.47;100020.34;5006624;28;20060;-63
2022/05/27 03:28:11;;;;;;;4.70;3.38;;;;;;;13.44;80.83;100015.34;5005610;28;20057;-66
2022/05/27 03:30:55;;;;;;;4.22;2.92;;;;;;;13.43;80.84;100017.09;4994815;28;20516;-65
2022/05/27 03:33:51;;;;;;;5.97;2.67;;;;;;;13.44;81.28;100021.47;5006193;28;20049;-65
2022/05/27 03:36:36;;;;;;;4.70;2.95;;;;;;;13.43;81.63;100024.22;5006573;28;20038;-65
2022/05/27 03:39:11;;;;;;;6.95;3.30;;;;;;;13.39;81.16;100017.38;5005883;28;20093;-67
2022/05/27 03:41:43;;;;;;;4.45;2.72;;;;;;;13.34;81.46;100014.13;5012377;28;20034;-66
2022/05/27 03:44:14;;;;;;;2.95;2.60;;;;;;;13.30;82.13;100018.75;5013997;28;20041;-65
2022/05/27 03:46:40;;;;;;;6.10;3.00;;;;;;;13.28;82.51;100012.69;5009232;28;20512;-66
2022/05/27 03:49:06;;;;;;;5.53;3.30;;;;;;;13.29;83.21;100006.44;5001436;28;20030;-64
2022/05/27 03:51:35;;;;;;;4.05;3.38;;;;;;;13.31;83.03;100012.50;5004962;28;20099;-63
2022/05/27 03:54:04;;;;;;;5.35;3.55;;;;;;;13.25;82.58;100011.03;5005861;28;20034;-64
2022/05/27 03:56:34;;;;;;;4.78;2.72;;;;;;;13.22;83.51;100013.88;5005296;28;20038;-65
2022/05/27 03:59:02;;;;;;;5.97;3.25;;;;;;;13.20;83.93;100006.97;5005711;28;20447;-65
2022/05/27 04:01:30;;;;;;;5.65;3.13;;;;;;;13.21;83.89;100014.78;5004938;28;20520;-66
2022/05/27 04:04:00;;;;;;;5.53;3.40;;;;;;;13.19;83.69;100006.13;5005773;28;20033;-65
2022/05/27 04:06:27;;;;;;;8.55;3.95;;;;;;;13.17;83.37;100007.09;5005107;28;20048;-65
2022/05/27 04:08:53;;;;;;;6.80;3.28;;;;;;;13.18;83.69;100012.34;5005972;28;20087;-66
2022/05/27 04:11:19;;;;;;;4.80;3.70;;;;;;;13.19;84.25;100007.88;5004909;28;20539;-67
2022/05/27 04:13:45;;;;;;;5.65;2.90;;;;;;;13.23;84.02;100004.13;5005634;28;20048;-66
2022/05/27 04:16:10;;;;;;;3.95;3.15;;;;;;;13.24;83.90;100011.13;5004832;28;20037;-66
2022/05/27 04:18:35;;;;;;;7.78;4.20;;;;;;;13.21;84.19;100006.84;5005440;28;20065;-66
2022/05/27 04:21:01;;;;;;;8.90;4.28;;;;;;;13.18;84.26;100008.84;5003718;28;20617;-64
2022/05/27 04:23:26;;;;;;;8.05;4.45;;;;;;;13.18;83.53;99993.81;5005046;28;20049;-66
2022/05/27 04:25:51;;;;;;;6.82;4.13;;;;;;;13.20;84.04;100009.59;5004902;28;20476;-65
2022/05/27 04:28:17;;;;;;;8.73;4.22;;;;;;;13.21;84.01;100016.59;5004599;28;20482;-65
2022/05/27 04:30:45;;;;;;;12.48;4.95;;;;;;;13.21;84.18;100009.50;5005725;28;20034;-65
2022/05/27 04:33:11;;;;;;;6.15;4.88;;;;;;;13.22;84.32;100005.94;5005318;28;20034;-66
2022/05/27 04:35:37;;;;;;;7.82;4.90;;;;;;;13.26;84.07;100003.94;5005777;28;20038;-65
2022/05/27 04:38:02;;;;;;;7.15;5.10;;;;;;;13.24;84.25;100005.81;5004859;28;20559;-66
2022/05/27 04:40:27;;;;;;;6.00;4.40;;;;;;;13.28;84.08;100002.09;5005383;28;20041;-66
2022/05/27 04:42:53;;;;;;;6.32;4.88;;;;;;;13.29;84.75;100009.97;5005081;28;20069;-64
2022/05/27 04:45:20;;;;;;;9.57;4.78;;;;;;;13.29;84.73;100012.63;5005124;28;20088;-66
2022/05/27 04:47:46;;;;;;;14.00;5.50;;;;;;;13.32;84.86;100012.44;5004764;28;20120;-65
2022/05/27 04:50:11;;;;;;;10.80;6.32;;;;;;;13.32;84.20;99999.19;5004797;28;20501;-66
2022/05/27 04:52:39;;;;;;;8.88;5.50;;;;;;;13.35;85.15;99999.97;5004811;28;20092;-67
2022/05/27 04:55:08;;;;;;;7.57;6.28;;;;;;;13.35;84.18;100003.47;5005160;28;20048;-67
2022/05/27 04:57:37;;;;;;;8.18;5.95;;;;;;;13.37;84.55;100001.59;5005338;28;20038;-67
2022/05/27 05:00:12;;;;;;;11.00;7.10;;;;;;;13.38;84.53;100003.28;5007847;28;20061;-66
2022/05/27 05:02:37;;;;;;;10.77;7.13;;;;;;;13.35;84.66;100003.47;5008657;28;20560;-65
2022/05/27 05:05:03;;;;;;;11.48;7.47;;;;;;;13.38;85.24;100007.72;5008607;28;20030;-65
2022/05/27 05:07:29;;;;;;;9.85;7.10;;;;;;;13.40;85.25;100011.16;5007479;28;20045;-65
2022/05/27 05:09:54;;;;;;;12.52;6.95;;;;;;;13.38;84.61;100008.56;5007249;28;20037;-66
2022/05/27 05:12:22;;;;;;;10.50;7.43;;;;;;;13.39;85.11;100009.44;5008167;28;20083;-65
2022/05/27 05:14:49;;;;;;;16.10;7.05;;;;;;;13.40;85.63;100019.09;5008700;28;20030;-67
2022/05/27 05:17:14;;;;;;;13.82;7.50;;;;;;;13.40;85.60;100004.06;5008639;28;20033;-66
2022/05/27 05:19:39;;;;;;;11.75;7.20;;;;;;;13.41;85.01;100013.69;5008639;28;20100;-65
2022/05/27 05:22:05;;;;;;;14.57;8.05;;;;;;;13.41;85.12;99999.59;5009158;28;20026;-65
2022/05/27 05:24:30;;;;;;;11.23;7.10;;;;;;;13.44;85.71;99997.66;5008803;28;20465;-65
2022/05/27 05:26:56;;;;;;;8.85;7.72;;;;;;;13.43;85.06;100000.38;5007966;28;20474;-64
2022/05/27 05:29:21;;;;;;;6.95;6.22;;;;;;;13.44;86.11;100010.03;5008478;28;20522;-64
2022/05/27 05:31:47;;;;;;;7.60;5.47;;;;;;;13.46;85.89;100006.38;5008444;28;20060;-64
2022/05/27 05:34:12;;;;;;;8.88;5.78;;;;;;;13.46;85.76;100013.44;5008796;28;20121;-65
2022/05/27 05:36:37;;;;;;;6.70;5.70;;;;;;;13.47;86.37;100009.84;5007562;28;20038;-65
2022/05/27 05:39:03;;;;;;;6.70;5.82;;;;;;;13.50;86.37;100007.88;5007865;28;20129;-65
2022/05/27 05:41:35;;;;;;;10.85;5.80;;;;;;;13.51;86.00;100009.59;5007607;28;20128;-66
2022/05/27 05:44:01;;;;;;;6.70;5.03;;;;;;;13.48;86.46;100015.06;5008432;28;20057;-66
2022/05/27 05:46:28;;;;;;;7.18;4.53;;;;;;;13.50;86.64;100014.97;5007633;28;20038;-66
2022/05/27 05:48:54;;;;;;;6.00;5.03;;;;;;;13.52;86.75;100024.53;5007911;28;20037;-63
2022/05/27 05:51:20;;;;;;;7.50;4.57;;;;;;;13.51;86.30;100022.84;5007737;28;20034;-64
2022/05/27 05:53:45;;;;;;;7.68;4.93;;;;;;;13.52;87.28;100019.25;5007749;28;20046;-63
2022/05/27 05:56:11;;;;;;;5.88;4.25;;;;;;;13.53;86.66;100026.22;5007068;28;20520;-67
2022/05/27 05:58:37;;;;;;;9.30;5.88;;;;;;;13.53;87.17;100020.09;5007560;28;20041;-65
2022/05/27 06:01:02;;;;;;;10.30;6.00;;;;;;;13.55;87.59;100025.31;5007050;28;20030;-65
2022/05/27 06:03:28;;;;;;;10.70;5.47;;;;;;;13.56;87.36;100027.00;5007482;28;20041;-67
2022/05/27 06:05:53;;;;;;;6.93;5.18;;;;;;;13.58;87.81;100025.13;5007248;28;20434;-65
2022/05/27 06:08:19;;;;;;;8.95;5.07;;;;;;;13.59;87.94;100016.25;5006947;28;20634;-66
2022/05/27 06:10:45;;;;;;;6.35;5.00;;;;;;;13.64;87.75;100030.94;5006880;28;20030;-64
2022/05/27 06:13:11;;;;;;;8.80;4.97;;;;;;;13.61;86.78;100031.13;5006941;28;20038;-65
2022/05/27 06:15:37;;;;;;;5.00;3.88;;;;;;;13.68;87.80;100042.19;5007622;28;20061;-66
2022/05/27 06:18:04;;;;;;;7.40;4.05;;;;;;;13.72;87.31;100033.97;5006848;28;20046;-64
2022/05/27 06:20:29;;;;;;;6.22;4.75;;;;;;;13.78;87.76;100039.84;5007344;28;20105;-62
2022/05/27 06:22:54;;;;;;;7.03;4.88;;;;;;;13.80;87.44;100041.47;5009118;28;20466;-65
2022/05/27 06:25:20;;;;;;;6.38;4.30;;;;;;;13.83;87.62;100040.44;5007043;28;20140;-66
2022/05/27 06:27:46;;;;;;;6.35;4.20;;;;;;;13.84;86.57;100037.72;5006729;28;20513;-65
2022/05/27 06:35:41;;;;;;;6.72;3.92;;;;;;;13.89;87.41;100043.59;5006872;28;20513;-64
2022/05/27 06:38:07;;;;;;;5.72;4.18;;;;;;;13.89;87.11;100046.25;5006427;28;20109;-63
2022/05/27 06:40:33;;;;;;;8.73;4.07;;;;;;;13.92;87.33;100047.84;5006988;28;20502;-65
2022/05/27 06:42:58;;;;;;;6.80;3.13;;;;;;;13.92;86.77;100048.69;5006849;28;20042;-65
2022/05/27 06:45:24;;;;;;;5.63;4.25;;;;;;;13.93;86.38;100049.56;5006767;28;20041;-63
2022/05/27 06:47:50;;;;;;;6.50;3.10;;;;;;;13.87;86.24;100053.44;5006062;28;20034;-62
2022/05/27 06:50:16;;;;;;;6.82;3.17;;;;;;;13.85;86.56;100051.81;5006716;28;20401;-64
2022/05/27 06:52:42;;;;;;;3.88;3.00;;;;;;;13.83;86.96;100048.38;5006567;28;20044;-66
2022/05/27 06:55:11;;;;;;;5.25;3.13;;;;;;;13.80;87.35;100054.72;5006522;28;20026;-64
2022/05/27 06:57:37;;;;;;;3.15;2.63;;;;;;;13.83;87.72;100064.28;5005867;28;20038;-61
2022/05/27 07:00:06;;;;;;;7.20;3.33;;;;;;;13.87;87.49;100056.06;5006293;28;20057;-62
2022/05/27 07:02:32;;;;;;;2.97;2.63;;;;;;;13.89;87.06;100059.50;5006276;28;20499;-64
2022/05/27 07:04:57;;;;;;;3.22;2.72;;;;;;;13.92;86.76;100059.31;5006435;28;20121;-66
2022/05/27 07:07:29;;;;;;;7.22;3.17;;;;;;;13.92;86.55;100064.59;5006052;28;20121;-65
2022/05/27 07:09:54;;;;;;;4.10;2.90;;;;;;;13.90;86.58;100060.34;5006429;28;20092;-65
2022/05/27 07:12:20;;;;;;;3.78;3.15;;;;;;;13.94;86.60;100054.78;5006786;28;20437;-65
2022/05/27 07:14:45;;;;;;;6.68;3.40;;;;;;;14.01;87.00;100065.88;5006503;28;20401;-66
2022/05/27 07:17:10;;;;;;;7.65;4.05;;;;;;;14.06;87.54;100065.59;5005586;28;20038;-65
2022/05/27 07:19:38;;;;;;;6.40;3.45;;;;;;;14.06;87.07;100061.16;5006437;28;20041;-64
2022/05/27 07:22:06;;;;;;;4.70;3.40;;;;;;;14.04;86.88;100065.69;5005649;28;20065;-64
2022/05/27 07:24:32;;;;;;;8.60;3.72;;;;;;;14.05;87.31;100067.38;5006190;28;20623;-65
2022/05/27 07:26:57;;;;;;;4.07;3.53;;;;;;;14.09;87.15;100070.72;5005530;28;20045;-64
2022/05/27 07:29:23;;;;;;;4.22;3.33;;;;;;;14.09;87.11;100066.25;5006054;28;20041;-64
2022/05/27 07:31:49;;;;;;;4.45;2.92;;;;;;;14.06;86.59;100073.56;5006053;28;20042;-66
2022/05/27 07:34:14;;;;;;;2.60;2.40;;;;;;;14.06;86.92;100071.75;5006136;28;20030;-65
2022/05/27 07:36:40;;;;;;;4.97;2.97;;;;;;;14.10;87.19;100070.66;5005482;28;20528;-65
2022/05/27 07:39:05;;;;;;;4.55;2.53;;;;;;;14.14;87.39;100080.09;5005948;28;20133;-64
2022/05/27 07:41:31;;;;;;;5.13;3.10;;;;;;;14.12;87.60;100086.44;5005902;28;20065;-66
2022/05/27 07:43:59;;;;;;;4.65;3.25;;;;;;;14.12;88.75;100089.94;5005373;28;20121;-65
2022/05/27 07:46:24;;;;;;;5.15;3.63;;;;;;;14.12;88.68;100097.03;5004577;28;20038;-64
2022/05/27 07:48:50;;;;;;;4.60;2.50;;;;;;;14.11;88.92;100101.50;5006200;28;20092;-64
2022/05/27 07:51:15;;;;;;;3.60;2.72;;;;;;;14.08;88.41;100085.78;5005416;28;20054;-64
2022/05/27 07:53:41;;;;;;;4.35;3.05;;;;;;;14.00;88.23;100101.25;5005538;28;20068;-64
2022/05/27 07:56:07;;;;;;;6.28;4.10;;;;;;;13.97;88.06;100090.84;5004714;28;20616;-66
2022/05/27 07:58:33;;;;;;;5.32;3.92;;;;;;;13.96;87.57;100090.00;5004902;28;20041;-65
2022/05/27 08:00:59;;;;;;;8.45;4.07;;;;;;;13.98;87.12;100094.34;5005276;28;20053;-66
2022/05/27 08:03:25;;;;;;;7.80;3.60;;;;;;;14.00;87.02;100090.66;5005610;28;20120;-57
2022/05/27 08:05:50;;;;;;;8.13;3.75;;;;;;;14.27;86.22;100089.97;5005488;28;20080;-59
2022/05/27 08:08:18;;;;;;;4.95;3.85;;;;;;;14.47;84.43;100086.13;5004748;28;20056;-57
2022/05/27 08:10:44;;;;;;;6.90;3.60;;;;;;;14.66;83.07;100092.06;5004763;28;20041;-58
2022/05/27 08:13:09;;;;;;;4.88;3.28;;;;;;;14.91;79.40;100093.19;5005150;28;20037;-60
2022/05/27 08:15:35;;;;;;;10.77;3.72;;;;;;;14.95;79.90;100106.19;5005226;28;20461;-60
2022/05/27 08:18:00;;;;;;;7.43;3.72;;;;;;;14.92;79.34;100103.72;5005144;28;20466;-57
2022/05/27 08:20:29;;;;;;;6.00;3.00;;;;;;;14.98;78.86;100103.34;5005830;28;20038;-59
2022/05/27 08:22:56;;;;;;;9.95;3.40;;;;;;;14.98;76.01;100121.91;5006203;28;20124;-61
2022/05/27 08:25:22;;;;;;;5.93;3.05;;;;;;;15.03;76.57;100114.50;5006285;28;20044;-56
2022/05/27 08:27:48;;;;;;;9.13;4.22;;;;;;;15.06;76.51;100113.47;5006468;28;20037;-60
2022/05/27 08:30:19;;;;;;;7.65;3.90;;;;;;;15.12;75.36;100117.56;5010602;28;20034;-55
2022/05/27 08:32:47;;;;;;;8.82;3.55;;;;;;;15.17;75.82;100118.97;5007340;28;20037;-56
2022/05/27 08:38:03;;;;;;;8.38;3.10;;;;;;;15.36;75.67;100117.81;5008505;28;20128;-60
2022/05/27 08:40:50;;;;;;;9.30;4.70;;;;;;;15.45;76.12;100115.41;5009269;28;20037;-59
2022/05/27 08:43:29;;;;;;;10.10;3.72;;;;;;;15.50;76.58;100114.25;5008163;28;20056;-59
2022/05/27 08:46:37;;;;;;;8.23;4.97;;;;;;;15.52;76.42;100110.56;5008188;28;20095;-66
2022/05/27 08:49:07;;;;;;;8.52;4.88;;;;;;;15.44;77.07;100111.03;4998934;28;20030;-68
2022/05/27 08:51:42;;;;;;;6.95;4.15;;;;;;;15.51;77.98;100108.84;5009575;28;20042;-66
2022/05/27 08:54:13;;;;;;;5.22;3.75;;;;;;;15.77;76.18;100119.63;5009137;28;20437;-64
2022/05/27 08:59:39;;;;;;;14.07;4.38;;;;;;;16.51;72.88;100120.84;5005290;28;20417;-63
2022/05/27 09:02:07;;;;;;;6.57;3.92;;;;;;;17.25;69.44;100110.41;5007736;28;20041;-66
2022/05/27 09:04:52;;;;;;;7.82;3.90;;;;;;;17.90;67.33;100106.59;5008780;28;20045;-66
2022/05/27 09:07:31;;;;;;;6.45;4.22;;;;;;;18.24;64.59;100111.06;5003570;28;20121;-66
2022/05/27 09:09:59;;;;;;;14.05;5.40;;;;;;;18.78;64.92;100104.31;5008183;28;20099;-67
2022/05/27 09:12:29;;;;;;;12.85;6.80;;;;;;;19.31;61.12;100098.31;5008235;28;20046;-65
2022/05/27 09:14:59;;;;;;;12.07;6.32;;;;;;;19.97;61.12;100100.97;5008314;28;20041;-66
2022/05/27 09:17:40;;;;;;;11.32;7.65;;;;;;;20.49;57.63;100093.03;5007924;28;20041;-64
2022/05/27 09:20:30;;;;;;;9.18;7.05;;;;;;;20.80;57.12;100102.81;5008547;28;20038;-64
2022/05/27 09:23:17;;;;;;;12.88;7.20;;;;;;;21.13;56.95;100091.94;5007255;28;20109;-65
2022/05/27 09:25:51;;;;;;;15.93;6.93;;;;;;;20.50;58.10;100106.28;5008422;28;20556;-65
2022/05/27 09:28:46;;;;;;;13.38;8.02;;;;;;;20.09;58.78;100102.63;5008216;28;20108;-65
2022/05/27 09:31:15;;;;;;;10.93;9.82;;;;;;;20.13;57.57;100106.75;5008159;28;20429;-67
2022/05/27 09:33:43;;;;;;;12.02;8.57;;;;;;;19.60;59.22;100103.13;5008566;28;20045;-66
2022/05/27 09:36:14;;;;;;;11.30;8.48;;;;;;;19.76;57.34;100105.41;5007732;28;20045;-66
2022/05/27 09:38:50;;;;;;;13.00;8.05;;;;;;;19.82;58.56;100096.91;5007801;28;20042;-66
2022/05/27 09:41:39;;;;;;;10.40;7.78;;;;;;;19.40;59.31;100089.56;5007767;28;20103;-66
2022/05/27 09:44:13;;;;;;;9.95;8.45;;;;;;;20.25;57.65;100088.75;5007735;28;20072;-65
2022/05/27 09:46:38;;;;;;;7.68;6.32;;;;;;;21.10;52.68;100094.91;5006910;28;20476;-65
2022/05/27 09:49:05;;;;;;;9.45;7.15;;;;;;;21.29;52.00;100086.94;5007656;28;20038;-67
2022/05/27 09:51:32;;;;;;;13.27;7.20;;;;;;;21.75;51.37;100088.16;5007297;28;20159;-64
2022/05/27 09:54:34;;;;;;;9.68;6.18;;;;;;;21.55;49.12;100071.19;5007290;28;20081;-65
2022/05/27 09:57:11;;;;;;;7.75;5.70;;;;;;;22.08;47.97;100073.47;5006658;28;20038;-66
2022/05/27 09:59:39;;;;;;;6.07;5.13;;;;;;;22.64;48.16;100076.34;5007375;28;20126;-67
2022/05/27 10:02:30;;;;;;;11.38;4.82;;;;;;;22.39;47.08;100083.22;5007214;28;20779;-66
2022/05/27 10:05:02;;;;;;;9.20;4.40;;;;;;;21.51;49.42;100088.56;5005988;28;20042;-65
2022/05/27 10:07:37;;;;;;;9.55;5.60;;;;;;;20.92;48.97;100081.28;5005594;28;20060;-65
2022/05/27 10:10:34;;;;;;;11.07;5.53;;;;;;;20.65;50.51;100087.22;5006800;28;20033;-63
2022/05/27 10:13:30;;;;;;;9.25;5.95;;;;;;;20.24;51.38;100089.75;5004332;28;20649;-65
2022/05/27 10:16:04;;;;;;;8.00;4.93;;;;;;;21.10;50.82;100092.22;5006471;28;20088;-64
2022/05/27 10:18:29;;;;;;;7.93;4.35;;;;;;;21.56;49.39;100088.13;5006769;28;20034;-64
2022/05/27 10:20:59;;;;;;;8.45;5.10;;;;;;;22.22;47.67;100080.25;5007345;28;20509;-65
2022/05/27 10:23:37;;;;;;;7.43;4.40;;;;;;;23.04;45.95;100088.72;5007497;28;20116;-64
2022/05/27 10:26:24;;;;;;;6.03;4.18;;;;;;;23.59;43.50;100085.97;5006708;28;20034;-67
2022/05/27 10:29:00;;;;;;;6.28;3.97;;;;;;;23.58;42.81;100089.69;5007312;28;20425;-67
2022/05/27 10:31:27;;;;;;;6.70;4.72;;;;;;;24.07;40.92;100079.41;5005831;28;20050;-65
2022/05/27 10:33:53;;;;;;;7.43;3.70;;;;;;;24.06;40.55;100088.47;5007044;28;20573;-64
2022/05/27 10:36:40;;;;;;;7.55;3.92;;;;;;;24.59;39.07;100089.44;5006581;28;20049;-64
2022/05/27 10:39:16;;;;;;;5.57;3.95;;;;;;;24.43;39.47;100093.66;5007030;28;20034;-65
2022/05/27 10:42:11;;;;;;;7.53;4.00;;;;;;;24.61;38.50;100088.25;5006195;28;20057;-66
2022/05/27 10:45:10;;;;;;;16.90;4.70;;;;;;;24.64;37.58;100081.69;5006189;28;20026;-66
2022/05/27 10:47:44;;;;;;;11.13;3.65;;;;;;;24.73;37.56;100082.59;5004820;28;20034;-66
2022/05/27 10:50:26;;;;;;;7.13;3.88;;;;;;;24.58;38.58;100093.94;5006489;28;20046;-66
2022/05/27 10:53:21;;;;;;;5.18;3.47;;;;;;;24.94;38.42;100088.44;5006571;28;20076;-65
2022/05/27 10:56:02;;;;;;;7.45;3.58;;;;;;;24.60;38.34;100081.16;4997141;28;20042;-65
2022/05/27 11:02:27;;;;;;;8.15;3.72;;;;;;;22.96;39.37;100080.47;4987995;28;20100;-66
2022/05/27 11:05:11;;;;;;;12.75;3.50;;;;;;;22.54;39.83;100075.53;5006156;28;20064;-64
2022/05/27 11:07:55;;;;;;;6.40;3.33;;;;;;;22.25;40.58;100073.78;5005787;28;20034;-66
2022/05/27 11:11:00;;;;;;;7.10;3.15;;;;;;;21.99;40.19;100076.16;5006770;28;20034;-65
2022/05/27 11:16:39;;;;;;;7.35;2.85;;;;;;;21.74;38.43;100074.91;5005209;28;20061;-67
2022/05/27 11:19:47;;;;;;;4.50;2.63;;;;;;;21.75;38.95;100068.53;5005802;28;20703;-64
2022/05/27 11:22:37;;;;;;;10.93;2.92;;;;;;;21.76;38.17;100075.59;5005777;28;20512;-67
2022/05/27 11:25:40;;;;;;;7.75;3.13;;;;;;;21.82;38.77;100069.66;5006636;28;20048;-65
2022/05/27 11:28:30;;;;;;;8.02;2.30;;;;;;;21.85;36.63;100072.06;5005619;28;20113;-65
2022/05/27 11:30:58;;;;;;;5.18;2.45;;;;;;;21.84;36.06;100068.53;5005709;28;20041;-64
2022/05/27 11:33:38;;;;;;;9.50;2.25;;;;;;;21.96;36.36;100063.88;5005580;28;20461;-64
2022/05/27 11:36:20;;;;;;;4.28;1.85;;;;;;;21.88;35.77;100069.13;5005460;28;20048;-66
2022/05/27 11:39:39;;;;;;;5.65;2.58;;;;;;;21.62;35.92;100064.28;5005682;28;20061;-67
2022/05/27 11:42:19;;;;;;;12.48;2.15;;;;;;;21.49;36.54;100071.75;4982477;28;20916;-65
2022/05/27 11:45:03;;;;;;;7.35;2.25;;;;;;;21.51;36.88;100063.56;5003086;28;20100;-66
2022/05/27 11:47:31;;;;;;;6.13;2.47;;;;;;;21.32;36.23;100064.34;5005255;28;20045;-64
2022/05/27 11:50:35;;;;;;;4.43;2.38;;;;;;;21.33;35.85;100066.88;5006845;28;20828;-64
2022/05/27 11:53:35;;;;;;;5.80;2.40;;;;;;;21.08;38.42;100062.03;5004930;28;20045;-65
2022/05/27 11:56:15;;;;;;;5.30;2.53;;;;;;;20.95;39.19;100070.31;5006352;28;20117;-64
2022/05/27 11:59:06;;;;;;;9.05;2.97;;;;;;;20.99;38.77;100067.22;5025210;28;20067;-66
2022/05/27 12:01:32;;;;;;;10.13;3.17;;;;;;;20.77;39.25;100067.38;5009612;28;20045;-66
2022/05/27 12:04:13;;;;;;;4.15;2.20;;;;;;;20.84;38.58;100065.03;5008293;28;20038;-68
2022/05/27 12:06:44;;;;;;;10.95;3.13;;;;;;;20.71;39.75;100066.09;5004585;28;20410;-66
2022/05/27 12:09:29;;;;;;;3.53;1.95;;;;;;;20.62;39.30;100066.91;5009354;28;20030;-65
2022/05/27 12:12:16;;;;;;;7.93;2.47;;;;;;;20.55;41.16;100071.09;5009247;28;20042;-66